createdAt,value
2022-08-29T00:02:40.385Z,101796.81
2022-08-29T00:05:42.039Z,101794.28
2022-08-29T00:08:44.202Z,101787.28
2022-08-29T00:11:46.750Z,101786.56
2022-08-29T00:14:49.060Z,101786.78
2022-08-29T00:17:50.744Z,101782.38
2022-08-29T00:20:52.716Z,101781.66
2022-08-29T00:23:54.323Z,101778.22
2022-08-29T00:26:56.060Z,101779.19
2022-08-29T00:29:57.640Z,101788.34
2022-08-29T00:32:59.253Z,101783.09
2022-08-29T00:36:00.853Z,101784.06
2022-08-29T00:39:04.428Z,101791.38
2022-08-29T00:42:10.865Z,101785.16
2022-08-29T00:45:13.861Z,101787.97
2022-08-29T00:48:16.572Z,101789.69
2022-08-29T00:51:20.369Z,101791.50
2022-08-29T00:54:22.907Z,101782.59
2022-08-29T00:57:27.176Z,101782.81
2022-08-29T01:00:29.019Z,101777.44
2022-08-29T01:03:36.116Z,101781.84
2022-08-29T01:06:44.889Z,101766.69
2022-08-29T01:09:47.133Z,101774.00
2022-08-29T01:12:49.120Z,101772.06
2022-08-29T01:15:51.211Z,101773.03
2022-08-29T01:18:58.297Z,101767.69
2022-08-29T01:22:06.420Z,101769.50
2022-08-29T01:25:16.232Z,101773.03
2022-08-29T01:28:20.043Z,101765.09
2022-08-29T01:31:37.217Z,101773.16
2022-08-29T01:34:47.356Z,101772.31
2022-08-29T01:37:48.933Z,101775.00
2022-08-29T01:40:50.479Z,101770.59
2022-08-29T01:43:54.527Z,101772.31
2022-08-29T01:47:02.796Z,101772.31
2022-08-29T01:50:12.893Z,101778.78
2022-08-29T01:53:14.651Z,101777.06
2022-08-29T01:56:21.081Z,101785.13
2022-08-29T01:59:26.769Z,101779.88
2022-08-29T02:02:29.399Z,101781.56
2022-08-29T02:05:31.468Z,101778.13
2022-08-29T02:08:33.025Z,101774.59
2022-08-29T02:11:38.819Z,101775.56
2022-08-29T02:14:40.877Z,101774.72
2022-08-29T02:17:42.581Z,101774.72
2022-08-29T02:20:45.496Z,101765.91
2022-08-29T02:23:50.202Z,101770.44
2022-08-29T02:26:52.898Z,101763.31
2022-08-29T02:29:55.118Z,101762.47
2022-08-29T02:32:56.836Z,101760.78
2022-08-29T02:35:59.427Z,101764.31
2022-08-29T02:39:01.977Z,101759.91
2022-08-29T02:42:04.621Z,101767.97
2022-08-29T02:45:06.889Z,101772.38
2022-08-29T02:48:08.609Z,101766.16
2022-08-29T02:51:10.731Z,101761.72
2022-08-29T02:54:12.768Z,101759.91
2022-08-29T02:57:14.309Z,101759.03
2022-08-29T03:00:21.525Z,101759.03
2022-08-29T03:03:23.137Z,101753.66
2022-08-29T03:06:24.777Z,101755.41
2022-08-29T03:09:26.381Z,101761.72
2022-08-29T03:12:28.808Z,101766.16
2022-08-29T03:15:33.764Z,101765.28
2022-08-29T03:18:35.797Z,101766.16
2022-08-29T03:21:37.389Z,101758.94
2022-08-29T03:24:39.268Z,101761.72
2022-08-29T03:27:41.447Z,101761.72
2022-08-29T03:30:43.002Z,101760.03
2022-08-29T03:33:44.632Z,101762.72
2022-08-29T03:36:46.187Z,101759.03
2022-08-29T03:39:47.781Z,101759.03
2022-08-29T03:42:49.332Z,101756.34
2022-08-29T03:45:51.432Z,101753.81
2022-08-29T03:48:53.831Z,101763.69
2022-08-29T03:51:56.042Z,101762.72
2022-08-29T03:54:57.687Z,101759.16
2022-08-29T03:58:01.347Z,101758.31
2022-08-29T04:01:03.057Z,101761.84
2022-08-29T04:04:05.686Z,101761.00
2022-08-29T04:07:07.279Z,101759.28
2022-08-29T04:10:10.551Z,101765.50
2022-08-29T04:13:12.848Z,101766.38
2022-08-29T04:16:17.822Z,101767.31
2022-08-29T04:19:21.336Z,101764.66
2022-08-29T04:22:22.922Z,101776.25
2022-08-29T04:25:26.988Z,101768.31
2022-08-29T04:28:28.633Z,101777.25
2022-08-29T04:31:32.297Z,101783.44
2022-08-29T04:34:34.208Z,101795.06
2022-08-29T04:37:35.859Z,101814.72
2022-08-29T04:40:40.624Z,101805.72
2022-08-29T04:43:42.831Z,101795.19
2022-08-29T04:46:44.407Z,101802.03
2022-08-29T04:49:46.149Z,101801.81
2022-08-29T04:52:48.812Z,101797.06
2022-08-29T04:56:07.020Z,101799.50
2022-08-29T04:59:09.420Z,101800.16
2022-08-29T05:02:11.959Z,101805.31
2022-08-29T05:05:15.614Z,101797.09
2022-08-29T05:08:17.145Z,101805.81
2022-08-29T05:11:22.694Z,101808.25
2022-08-29T05:14:24.716Z,101809.00
2022-08-29T05:17:27.436Z,101808.88
2022-08-29T05:20:29.156Z,101812.19
2022-08-29T05:23:31.094Z,101815.63
2022-08-29T05:26:39.979Z,101820.00
2022-08-29T05:29:43.614Z,101822.69
2022-08-29T05:32:45.256Z,101825.38
2022-08-29T05:35:47.340Z,101827.13
2022-08-29T05:38:49.048Z,101828.06
2022-08-29T05:41:50.640Z,101836.91
2022-08-29T05:44:52.656Z,101836.91
2022-08-29T05:47:54.748Z,101834.94
2022-08-29T05:50:56.880Z,101845.56
2022-08-29T05:53:58.753Z,101850.84
2022-08-29T05:57:00.341Z,101845.47
2022-08-29T06:00:02.113Z,101854.28
2022-08-29T06:03:03.812Z,101849.78
2022-08-29T06:06:05.604Z,101851.50
2022-08-29T06:09:08.496Z,101848.72
2022-08-29T06:12:13.644Z,101849.53
2022-08-29T06:15:15.279Z,101855.78
2022-08-29T06:18:17.044Z,101864.59
2022-08-29T06:21:19.564Z,101865.34
2022-08-29T06:24:21.381Z,101860.56
2022-08-29T06:27:22.964Z,101858.53
2022-08-29T06:30:24.534Z,101857.44
2022-08-29T06:33:26.201Z,101864.16
2022-08-29T06:36:29.558Z,101866.38
2022-08-29T06:39:31.420Z,101874.09
2022-08-29T06:42:33.024Z,101876.31
2022-08-29T06:45:40.380Z,101877.66
2022-08-29T06:48:41.941Z,101881.72
2022-08-29T06:51:49.110Z,101883.22
2022-08-29T06:54:50.772Z,101880.88
2022-08-29T06:57:54.514Z,101881.38
2022-08-29T07:00:56.044Z,101884.59
2022-08-29T07:03:58.877Z,101880.78
2022-08-29T07:07:00.629Z,101886.91
2022-08-29T07:10:02.457Z,101888.38
2022-08-29T07:13:04.160Z,101888.13
2022-08-29T07:16:18.913Z,101882.41
2022-08-29T07:19:20.875Z,101888.56
2022-08-29T07:22:22.737Z,101886.47
2022-08-29T07:25:24.926Z,101888.78
2022-08-29T07:28:26.612Z,101886.72
2022-08-29T07:31:31.184Z,101887.34
2022-08-29T07:34:33.467Z,101889.75
2022-08-29T07:37:35.085Z,101889.53
2022-08-29T07:40:36.756Z,101889.41
2022-08-29T07:43:38.349Z,101897.22
2022-08-29T07:46:40.334Z,101899.22
2022-08-29T07:49:42.199Z,101893.78
2022-08-29T07:52:43.893Z,101897.06
2022-08-29T07:55:45.660Z,101904.16
2022-08-29T07:58:47.319Z,101899.91
2022-08-29T08:01:49.051Z,101895.47
2022-08-29T08:04:52.614Z,101907.31
2022-08-29T08:07:55.598Z,101903.97
2022-08-29T08:10:57.991Z,101915.13
2022-08-29T08:13:59.700Z,101907.63
2022-08-29T08:17:01.353Z,101914.59
2022-08-29T08:20:06.941Z,101911.78
2022-08-29T08:23:09.004Z,101908.34
2022-08-29T08:26:12.529Z,101906.97
2022-08-29T08:29:14.097Z,101910.84
2022-08-29T08:32:15.665Z,101911.31
2022-08-29T08:35:22.518Z,101899.56
2022-08-29T08:38:24.646Z,101917.59
2022-08-29T08:42:07.547Z,101918.44
2022-08-29T08:45:13.075Z,101911.94
2022-08-29T08:48:17.392Z,101915.97
2022-08-29T08:51:23.593Z,101918.16
2022-08-29T08:54:29.355Z,101921.53
2022-08-29T08:57:39.979Z,101921.59
2022-08-29T09:00:52.110Z,101919.97
2022-08-29T09:04:05.755Z,101923.94
2022-08-29T09:07:39.300Z,101925.97
2022-08-29T09:10:58.575Z,101918.34
2022-08-29T09:14:18.168Z,101922.34
2022-08-29T09:17:30.550Z,101932.03
2022-08-29T09:20:40.293Z,101925.25
2022-08-29T09:23:54.852Z,101927.53
2022-08-29T09:26:56.583Z,101927.28
2022-08-29T09:30:20.603Z,101925.31
2022-08-29T09:33:22.392Z,101922.47
2022-08-29T09:36:35.087Z,101927.50
2022-08-29T09:39:36.788Z,101927.94
2022-08-29T09:42:42.764Z,101923.25
2022-08-29T09:46:05.501Z,101926.41
2022-08-29T09:49:08.424Z,101928.69
2022-08-29T09:52:17.026Z,101926.28
2022-08-29T09:55:35.505Z,101919.94
2022-08-29T09:58:40.569Z,101923.66
2022-08-29T10:01:42.239Z,101919.25
2022-08-29T10:04:46.647Z,101925.69
2022-08-29T10:07:50.939Z,101920.44
2022-08-29T10:10:57.221Z,101920.59
2022-08-29T10:14:07.510Z,101922.19
2022-08-29T10:17:40.147Z,101914.50
2022-08-29T10:21:07.845Z,101924.75
2022-08-29T10:24:21.377Z,101934.16
2022-08-29T10:27:46.964Z,101928.44
2022-08-29T10:31:00.861Z,101925.34
2022-08-29T10:34:37.330Z,101927.31
2022-08-29T10:38:17.412Z,101937.56
2022-08-29T10:41:24.909Z,101942.13
2022-08-29T10:44:29.640Z,101939.56
2022-08-29T10:47:41.142Z,101943.72
2022-08-29T10:51:03.144Z,101947.81
2022-08-29T10:54:18.254Z,101946.09
2022-08-29T10:57:58.507Z,101937.44
2022-08-29T11:01:09.709Z,101936.13
2022-08-29T11:04:21.288Z,101945.69
2022-08-29T11:07:36.689Z,101947.97
2022-08-29T11:10:43.277Z,101943.25
2022-08-29T11:13:52.875Z,101947.34
2022-08-29T11:16:56.096Z,101938.66
2022-08-29T11:20:19.675Z,101944.91
2022-08-29T11:23:43.051Z,101946.72
2022-08-29T11:26:44.624Z,101948.88
2022-08-29T11:30:12.426Z,101943.84
2022-08-29T11:33:51.076Z,101945.09
2022-08-29T11:37:26.411Z,101954.66
2022-08-29T11:44:28.499Z,101959.34
2022-08-29T11:47:40.797Z,101963.59
2022-08-29T11:50:43.512Z,101949.28
2022-08-29T11:53:45.149Z,101960.78
2022-08-29T11:56:46.744Z,101964.75
2022-08-29T11:59:51.183Z,101966.16
2022-08-29T12:02:52.770Z,101969.25
2022-08-29T12:06:37.166Z,101963.34
2022-08-29T12:09:53.757Z,101970.97
2022-08-29T12:12:59.661Z,101967.78
2022-08-29T12:16:09.740Z,101969.19
2022-08-29T12:19:11.488Z,101963.44
2022-08-29T12:22:48.240Z,101969.09
2022-08-29T12:26:09.498Z,101959.09
2022-08-29T12:29:44.764Z,101954.91
2022-08-29T12:33:32.531Z,101948.16
2022-08-29T12:36:59.009Z,101945.00
2022-08-29T12:40:07.097Z,101941.50
2022-08-29T12:43:14.523Z,101926.81
2022-08-29T12:46:22.092Z,101926.41
2022-08-29T12:49:30.441Z,101936.69
2022-08-29T12:52:37.776Z,101926.41
2022-08-29T12:55:43.524Z,101921.84
2022-08-29T12:58:54.166Z,101928.75
2022-08-29T13:01:58.060Z,101929.84
2022-08-29T13:04:59.971Z,101915.75
2022-08-29T13:08:15.617Z,101913.06
2022-08-29T13:11:22.271Z,101924.13
2022-08-29T13:14:23.860Z,101918.50
2022-08-29T13:17:29.888Z,101921.41
2022-08-29T13:20:40.353Z,101910.16
2022-08-29T13:23:46.796Z,101918.31
2022-08-29T13:27:04.990Z,101911.38
2022-08-29T13:30:09.079Z,101910.88
2022-08-29T13:33:35.194Z,101912.25
2022-08-29T13:36:59.429Z,101911.28
2022-08-29T13:40:38.987Z,101906.50
2022-08-29T13:43:45.857Z,101911.06
2022-08-29T13:46:49.282Z,101911.88
2022-08-29T13:49:51.794Z,101906.31
2022-08-29T13:52:56.141Z,101907.53
2022-08-29T13:55:59.694Z,101905.97
2022-08-29T13:59:02.691Z,101908.63
2022-08-29T14:02:09.334Z,101904.78
2022-08-29T14:05:13.358Z,101903.59
2022-08-29T14:08:15.314Z,101899.47
2022-08-29T14:11:17.612Z,101893.84
2022-08-29T14:14:19.417Z,101891.63
2022-08-29T14:17:22.481Z,101896.13
2022-08-29T14:20:24.791Z,101896.53
2022-08-29T14:23:26.472Z,101896.88
2022-08-29T14:26:28.117Z,101889.75
2022-08-29T14:29:31.087Z,101899.94
2022-08-29T14:32:33.030Z,101889.41
2022-08-29T14:35:34.913Z,101889.28
2022-08-29T14:38:36.698Z,101885.69
2022-08-29T14:41:38.635Z,101877.81
2022-08-29T14:44:40.276Z,101877.16
2022-08-29T14:47:43.504Z,101879.59
2022-08-29T14:50:45.229Z,101888.47
2022-08-29T14:53:54.118Z,101885.88
2022-08-29T14:56:56.430Z,101894.00
2022-08-29T14:59:58.220Z,101888.78
2022-08-29T15:03:00.373Z,101890.69
2022-08-29T15:06:05.043Z,101888.78
2022-08-29T15:09:06.871Z,101882.66
2022-08-29T15:12:08.674Z,101879.97
2022-08-29T15:15:10.866Z,101877.44
2022-08-29T15:18:30.584Z,101876.09
2022-08-29T15:21:36.301Z,101878.88
2022-08-29T15:24:38.216Z,101871.44
2022-08-29T15:27:39.857Z,101871.97
2022-08-29T15:30:42.250Z,101869.97
2022-08-29T15:33:44.025Z,101875.81
2022-08-29T15:36:45.735Z,101878.50
2022-08-29T15:39:49.891Z,101877.66
2022-08-29T15:42:56.392Z,101882.56
2022-08-29T15:45:59.853Z,101881.88
2022-08-29T15:49:01.945Z,101883.84
2022-08-29T15:52:03.729Z,101881.44
2022-08-29T15:55:07.089Z,101884.28
2022-08-29T15:58:08.821Z,101883.47
2022-08-29T16:01:10.762Z,101881.13
2022-08-29T16:04:13.874Z,101876.81
2022-08-29T16:07:16.870Z,101869.06
2022-08-29T16:10:18.546Z,101868.59
2022-08-29T16:13:20.256Z,101873.66
2022-08-29T16:16:22.115Z,101882.56
2022-08-29T16:19:23.941Z,101877.69
2022-08-29T16:22:26.521Z,101877.94
2022-08-29T16:25:29.636Z,101871.09
2022-08-29T16:28:31.741Z,101872.81
2022-08-29T16:31:33.965Z,101878.94
2022-08-29T16:34:35.650Z,101868.94
2022-08-29T16:37:37.714Z,101868.38
2022-08-29T16:40:39.676Z,101863.59
2022-08-29T16:43:43.346Z,101865.81
2022-08-29T16:46:45.029Z,101867.50
2022-08-29T16:49:47.806Z,101863.69
2022-08-29T16:52:49.425Z,101860.06
2022-08-29T16:55:51.120Z,101866.22
2022-08-29T16:58:59.826Z,101869.09
2022-08-29T17:02:02.248Z,101857.69
2022-08-29T17:05:04.779Z,101854.81
2022-08-29T17:08:06.438Z,101863.97
2022-08-29T17:11:08.184Z,101862.00
2022-08-29T17:14:10.222Z,101854.59
2022-08-29T17:17:11.934Z,101864.88
2022-08-29T17:20:15.081Z,101855.34
2022-08-29T17:23:16.762Z,101856.50
2022-08-29T17:26:18.549Z,101859.19
2022-08-29T17:29:20.536Z,101869.00
2022-08-29T17:32:22.971Z,101866.31
2022-08-29T17:35:24.801Z,101869.88
2022-08-29T17:38:27.171Z,101872.16
2022-08-29T17:41:28.820Z,101873.47
2022-08-29T17:44:33.293Z,101864.88
2022-08-29T17:47:34.974Z,101862.34
2022-08-29T17:50:37.542Z,101868.91
2022-08-29T17:53:40.385Z,101877.44
2022-08-29T17:56:47.438Z,101876.88
2022-08-29T17:59:49.137Z,101880.84
2022-08-29T18:02:51.561Z,101878.56
2022-08-29T18:05:53.310Z,101882.97
2022-08-29T18:08:55.040Z,101884.41
2022-08-29T18:11:58.433Z,101886.41
2022-08-29T18:15:00.141Z,101888.69
2022-08-29T18:18:01.872Z,101897.25
2022-08-29T18:21:04.691Z,101899.81
2022-08-29T18:24:06.647Z,101901.69
2022-08-29T18:27:08.382Z,101908.78
2022-08-29T18:30:13.678Z,101916.22
2022-08-29T18:33:15.691Z,101918.50
2022-08-29T18:36:17.890Z,101924.19
2022-08-29T18:39:19.822Z,101926.75
2022-08-29T18:42:39.473Z,101926.06
2022-08-29T18:45:42.992Z,101926.88
2022-08-29T18:48:44.963Z,101911.63
2022-08-29T18:51:47.000Z,101916.75
2022-08-29T18:54:48.684Z,101920.88
2022-08-29T18:57:50.997Z,101927.59
2022-08-29T19:00:53.965Z,101929.44
2022-08-29T19:04:00.643Z,101939.38
2022-08-29T19:07:02.345Z,101948.50
2022-08-29T19:10:05.757Z,101944.94
2022-08-29T19:13:08.250Z,101952.44
2022-08-29T19:16:10.049Z,101957.13
2022-08-29T19:19:13.432Z,101958.28
2022-08-29T19:22:15.990Z,101960.41
2022-08-29T19:25:18.223Z,101954.25
2022-08-29T19:28:21.129Z,101960.81
2022-08-29T19:31:24.616Z,101954.56
2022-08-29T19:34:26.364Z,101961.09
2022-08-29T19:37:28.145Z,101970.34
2022-08-29T19:40:35.513Z,101964.06
2022-08-29T19:43:41.243Z,101962.50
2022-08-29T19:46:47.270Z,101965.34
2022-08-29T19:49:51.005Z,101959.34
2022-08-29T19:52:53.509Z,101966.75
2022-08-29T19:55:56.497Z,101965.28
2022-08-29T19:58:59.574Z,101972.97
2022-08-29T20:02:01.410Z,101962.69
2022-08-29T20:05:04.919Z,101968.38
2022-08-29T20:08:06.773Z,101971.50
2022-08-29T20:11:21.229Z,101977.72
2022-08-29T20:14:24.181Z,101975.19
2022-08-29T20:17:26.784Z,101985.09
2022-08-29T20:20:37.068Z,101992.28
2022-08-29T20:23:41.526Z,101993.78
2022-08-29T20:26:51.025Z,101992.47
2022-08-29T20:29:55.201Z,102006.38
2022-08-29T20:32:57.484Z,102018.38
2022-08-29T20:36:18.255Z,102009.09
2022-08-29T20:39:21.939Z,102010.47
2022-08-29T20:42:24.840Z,102012.38
2022-08-29T20:45:26.446Z,102007.97
2022-08-29T20:48:31.345Z,102007.16
2022-08-29T20:51:37.971Z,102004.47
2022-08-29T20:54:39.707Z,102006.84
2022-08-29T20:57:42.101Z,102007.94
2022-08-29T21:00:43.654Z,102011.25
2022-08-29T21:04:03.884Z,102013.72
2022-08-29T21:07:11.859Z,102020.25
2022-08-29T21:10:13.478Z,102019.56
2022-08-29T21:13:16.014Z,102020.56
2022-08-29T21:16:17.801Z,102016.13
2022-08-29T21:19:20.368Z,102019.44
2022-08-29T21:22:25.052Z,102020.16
2022-08-29T21:25:26.992Z,102018.06
2022-08-29T21:28:32.822Z,102017.81
2022-08-29T21:31:35.550Z,102010.44
2022-08-29T21:34:37.571Z,102002.97
2022-08-29T21:37:39.230Z,102014.28
2022-08-29T21:40:51.283Z,102011.09
2022-08-29T21:43:53.380Z,102018.66
2022-08-29T21:46:55.120Z,102015.44
2022-08-29T21:49:57.308Z,102019.47
2022-08-29T21:52:58.868Z,102018.84
2022-08-29T21:56:00.453Z,102023.59
2022-08-29T21:59:02.504Z,102027.25
2022-08-29T22:02:04.321Z,102028.59
2022-08-29T22:05:06.056Z,102023.66
2022-08-29T22:08:08.252Z,102025.81
2022-08-29T22:11:18.732Z,102028.88
2022-08-29T22:14:20.305Z,102025.88
2022-08-29T22:17:21.897Z,102030.53
2022-08-29T22:20:23.476Z,102020.44
2022-08-29T22:23:25.106Z,102027.38
2022-08-29T22:26:27.270Z,102015.47
2022-08-29T22:29:28.836Z,102026.03
2022-08-29T22:32:35.870Z,102023.13
2022-08-29T22:35:37.712Z,102017.44
2022-08-29T22:38:41.467Z,102013.50
2022-08-29T22:41:47.554Z,102017.59
2022-08-29T22:45:05.114Z,102020.72
2022-08-29T22:48:06.765Z,102014.19
2022-08-29T22:51:23.259Z,102014.63
2022-08-29T22:54:36.787Z,102016.91
2022-08-29T22:57:38.373Z,102023.88
2022-08-29T23:00:39.969Z,102020.66
2022-08-29T23:03:41.513Z,102015.50
2022-08-29T23:06:43.539Z,102021.94
2022-08-29T23:09:45.591Z,102017.66
2022-08-29T23:12:47.291Z,102015.28
2022-08-29T23:15:49.240Z,102016.53
2022-08-29T23:18:51.631Z,102015.13
2022-08-29T23:21:53.405Z,102012.00
2022-08-29T23:24:58.700Z,102022.31
2022-08-29T23:28:01.152Z,102015.44
2022-08-29T23:31:03.397Z,102027.34
2022-08-29T23:34:05.040Z,102023.91
2022-08-29T23:37:06.619Z,102020.56
2022-08-29T23:40:09.600Z,102027.00
2022-08-29T23:43:11.988Z,102021.75
2022-08-29T23:46:14.076Z,102021.97
2022-08-29T23:49:15.737Z,102030.97
2022-08-29T23:52:18.121Z,102035.50
2022-08-29T23:55:19.778Z,102037.19
2022-08-29T23:58:21.372Z,102040.75
